createdAt,value
2019-06-10T00:00:52.570Z,6.72
2019-06-10T00:02:57.661Z,6.95
2019-06-10T00:05:03.736Z,10.63
2019-06-10T00:07:07.526Z,6.78
2019-06-10T00:09:12.526Z,7.22
2019-06-10T00:11:16.435Z,7.80
2019-06-10T00:13:20.968Z,6.55
2019-06-10T00:15:25.000Z,7.55
2019-06-10T00:17:31.311Z,8.03
2019-06-10T00:19:34.517Z,7.40
2019-06-10T00:21:38.467Z,7.17
2019-06-10T00:23:42.477Z,7.53
2019-06-10T00:25:46.362Z,9.05
2019-06-10T00:27:51.178Z,7.45
2019-06-10T00:29:55.173Z,7.05
2019-06-10T00:32:01.732Z,7.05
2019-06-10T00:34:06.245Z,8.10
2019-06-10T00:36:13.396Z,6.05
2019-06-10T00:38:15.929Z,6.45
2019-06-10T00:40:21.443Z,8.30
2019-06-10T00:42:25.574Z,6.53
2019-06-10T00:44:31.128Z,8.93
2019-06-10T00:46:35.060Z,6.97
2019-06-10T00:48:41.045Z,8.23
2019-06-10T00:50:44.544Z,6.78
2019-06-10T00:52:48.387Z,7.90
2019-06-10T00:54:52.350Z,6.90
2019-06-10T00:56:56.221Z,10.60
2019-06-10T00:59:01.009Z,7.10
2019-06-10T01:01:06.116Z,10.30
2019-06-10T01:03:13.454Z,9.33
2019-06-10T01:05:15.505Z,7.70
2019-06-10T01:07:21.646Z,6.28
2019-06-10T01:09:25.215Z,9.15
2019-06-10T01:11:31.011Z,8.20
2019-06-10T01:13:34.583Z,7.05
2019-06-10T01:15:38.565Z,6.58
2019-06-10T01:17:42.490Z,5.87
2019-06-10T01:19:46.380Z,10.28
2019-06-10T01:21:51.131Z,8.35
2019-06-10T01:23:55.520Z,6.80
2019-06-10T01:26:01.572Z,7.15
2019-06-10T01:28:05.642Z,13.70
2019-06-10T01:30:18.737Z,5.83
2019-06-10T01:32:16.082Z,9.23
2019-06-10T01:34:21.810Z,8.25
2019-06-10T01:36:25.557Z,6.87
2019-06-10T01:38:31.538Z,11.08
2019-06-10T01:40:34.965Z,7.70
2019-06-10T01:42:41.206Z,7.75
2019-06-10T01:44:44.414Z,6.12
2019-06-10T01:46:48.152Z,7.60
2019-06-10T01:48:52.343Z,11.70
2019-06-10T01:50:56.347Z,7.53
2019-06-10T01:53:00.640Z,12.40
2019-06-10T01:55:05.436Z,10.50
2019-06-10T01:57:12.261Z,7.33
2019-06-10T01:59:15.759Z,12.03
2019-06-10T02:01:26.836Z,11.75
2019-06-10T02:03:31.448Z,6.60
2019-06-10T02:05:35.564Z,8.85
2019-06-10T02:07:40.971Z,9.30
2019-06-10T02:09:44.872Z,13.03
2019-06-10T02:11:51.269Z,9.83
2019-06-10T02:13:54.215Z,6.90
2019-06-10T02:16:00.971Z,6.12
2019-06-10T02:18:04.365Z,12.88
2019-06-10T02:20:08.277Z,7.70
2019-06-10T02:22:14.976Z,11.05
2019-06-10T02:24:19.043Z,8.73
2019-06-10T02:26:23.775Z,10.13
2019-06-10T02:28:27.537Z,6.95
2019-06-10T02:30:41.715Z,12.13
2019-06-10T02:32:37.967Z,9.85
2019-06-10T02:34:55.025Z,14.75
2019-06-10T02:36:47.635Z,12.68
2019-06-10T02:38:53.969Z,7.83
2019-06-10T02:40:57.097Z,9.00
2019-06-10T02:43:03.557Z,14.93
2019-06-10T02:45:08.987Z,6.07
2019-06-10T02:47:15.840Z,11.73
2019-06-10T02:49:35.150Z,7.72
2019-06-10T02:51:30.186Z,8.50
2019-06-10T02:53:32.201Z,7.47
2019-06-10T02:55:35.370Z,7.22
2019-06-10T02:57:40.516Z,7.97
2019-06-10T02:59:44.559Z,7.55
2019-06-10T03:01:48.404Z,18.73
2019-06-10T03:03:54.388Z,10.78
2019-06-10T03:05:57.854Z,14.40
2019-06-10T03:08:03.857Z,7.95
2019-06-10T03:10:07.590Z,9.85
2019-06-10T03:12:12.243Z,11.65
2019-06-10T03:14:16.141Z,13.18
2019-06-10T03:16:32.971Z,10.15
2019-06-10T03:18:37.113Z,9.58
2019-06-10T03:20:42.668Z,9.78
2019-06-10T03:22:46.516Z,10.98
2019-06-10T03:24:52.377Z,9.53
2019-06-10T03:26:55.939Z,14.70
2019-06-10T03:28:59.926Z,9.63
2019-06-10T03:31:05.685Z,9.53
2019-06-10T03:33:09.514Z,10.60
2019-06-10T03:35:13.820Z,8.30
2019-06-10T03:37:18.318Z,10.60
2019-06-10T03:39:23.891Z,8.83
2019-06-10T03:41:27.997Z,8.85
2019-06-10T03:43:32.881Z,9.33
2019-06-10T03:45:37.024Z,9.30
2019-06-10T03:47:42.777Z,11.38
2019-06-10T03:49:52.512Z,12.60
2019-06-10T03:51:52.944Z,9.75
2019-06-10T03:53:56.943Z,5.53
2019-06-10T03:56:02.382Z,11.68
2019-06-10T03:58:06.771Z,8.50
2019-06-10T04:00:13.921Z,14.45
2019-06-10T04:02:17.309Z,9.15
2019-06-10T04:04:23.428Z,10.90
2019-06-10T04:06:27.685Z,8.63
2019-06-10T04:08:33.040Z,8.78
2019-06-10T04:10:37.061Z,8.00
2019-06-10T04:12:43.271Z,13.72
2019-06-10T04:14:46.688Z,11.77
2019-06-10T04:16:52.525Z,8.25
2019-06-10T04:18:56.295Z,12.58
2019-06-10T04:21:02.290Z,10.40
2019-06-10T04:23:05.929Z,18.77
2019-06-10T04:25:12.177Z,11.03
2019-06-10T04:27:15.808Z,14.13
2019-06-10T04:29:20.613Z,10.38
2019-06-10T04:31:26.536Z,9.93
2019-06-10T04:33:32.966Z,9.57
2019-06-10T04:35:36.638Z,15.40
2019-06-10T04:37:42.637Z,15.50
2019-06-10T04:39:46.070Z,7.85
2019-06-10T04:41:49.898Z,9.13
2019-06-10T04:43:53.804Z,14.15
2019-06-10T04:45:57.730Z,6.53
2019-06-10T04:48:03.056Z,12.30
2019-06-10T04:50:20.747Z,11.80
2019-06-10T04:52:13.511Z,11.93
2019-06-10T04:54:18.474Z,12.97
2019-06-10T04:56:25.832Z,10.43
2019-06-10T04:58:30.298Z,11.43
2019-06-10T05:00:34.512Z,10.93
2019-06-10T05:02:38.371Z,9.77
2019-06-10T05:04:42.688Z,8.63
2019-06-10T05:06:46.548Z,12.07
2019-06-10T05:08:50.473Z,11.53
2019-06-10T05:10:54.585Z,10.55
2019-06-10T05:12:58.592Z,7.27
2019-06-10T05:15:03.481Z,9.40
2019-06-10T05:17:07.705Z,9.60
2019-06-10T05:19:12.889Z,8.68
2019-06-10T05:21:17.030Z,10.03
2019-06-10T05:23:22.493Z,12.58
2019-06-10T05:25:27.232Z,10.73
2019-06-10T05:27:33.071Z,9.55
2019-06-10T05:29:37.099Z,10.23
2019-06-10T05:31:43.541Z,11.12
2019-06-10T05:33:46.746Z,11.70
2019-06-10T05:35:52.839Z,10.88
2019-06-10T05:37:56.458Z,11.70
2019-06-10T05:40:02.194Z,9.73
2019-06-10T05:42:06.031Z,12.00
2019-06-10T05:44:09.957Z,11.93
2019-06-10T05:46:13.956Z,10.45
2019-06-10T05:48:18.233Z,8.43
2019-06-10T05:50:22.531Z,11.05
2019-06-10T05:52:27.920Z,8.35
2019-06-10T05:54:34.063Z,9.57
2019-06-10T05:56:38.543Z,10.40
2019-06-10T05:58:43.636Z,13.43
2019-06-10T06:00:47.833Z,15.58
2019-06-10T06:02:52.266Z,13.62
2019-06-10T06:04:56.550Z,13.58
2019-06-10T06:07:02.383Z,12.35
2019-06-10T06:09:07.454Z,9.85
2019-06-10T06:11:12.684Z,14.65
2019-06-10T06:13:16.765Z,13.20
2019-06-10T06:15:22.119Z,9.95
2019-06-10T06:17:25.948Z,13.10
2019-06-10T06:19:36.654Z,9.18
2019-06-10T06:21:42.743Z,9.43
2019-06-10T06:23:44.333Z,9.53
2019-06-10T06:25:48.202Z,12.23
2019-06-10T06:27:52.494Z,11.40
2019-06-10T06:29:56.351Z,11.65
2019-06-10T06:32:02.556Z,19.07
2019-06-10T06:34:06.174Z,11.80
2019-06-10T06:36:12.453Z,10.30
2019-06-10T06:38:15.721Z,15.50
2019-06-10T06:40:20.346Z,13.70
2019-06-10T06:42:24.329Z,11.43
2019-06-10T06:44:28.175Z,13.18
2019-06-10T06:46:33.118Z,13.35
2019-06-10T06:48:40.294Z,10.60
2019-06-10T06:51:00.137Z,9.35
2019-06-10T06:53:18.982Z,11.97
2019-06-10T06:54:54.520Z,8.60
2019-06-10T06:56:58.439Z,8.00
2019-06-10T06:59:02.588Z,10.13
2019-06-10T07:01:11.017Z,7.53
2019-06-10T07:03:12.646Z,5.40
2019-06-10T07:05:16.760Z,9.50
2019-06-10T07:07:22.239Z,7.95
2019-06-10T07:09:28.328Z,5.92
2019-06-10T07:11:37.072Z,7.95
2019-06-10T07:13:45.647Z,5.53
2019-06-10T07:15:48.045Z,6.80
2019-06-10T07:17:52.647Z,5.40
2019-06-10T07:19:57.635Z,5.70
2019-06-10T07:22:09.481Z,9.83
2019-06-10T07:24:07.143Z,5.75
2019-06-10T07:26:12.724Z,5.55
2019-06-10T07:28:16.732Z,4.37
2019-06-10T07:30:22.930Z,8.38
2019-06-10T07:32:26.438Z,5.53
2019-06-10T07:34:32.566Z,6.25
2019-06-10T07:36:37.084Z,9.05
2019-06-10T07:38:45.756Z,9.55
2019-06-10T07:40:46.650Z,6.80
2019-06-10T07:42:52.924Z,7.50
2019-06-10T07:44:56.230Z,6.78
2019-06-10T07:47:02.446Z,5.20
2019-06-10T07:49:05.654Z,6.60
2019-06-10T07:51:09.385Z,5.35
2019-06-10T07:53:13.276Z,7.33
2019-06-10T07:55:17.520Z,6.03
2019-06-10T07:57:22.568Z,6.62
2019-06-10T07:59:26.417Z,7.70
2019-06-10T08:01:32.843Z,7.22
2019-06-10T08:03:36.916Z,4.85
2019-06-10T08:05:44.369Z,7.05
2019-06-10T08:07:48.860Z,6.97
2019-06-10T08:09:53.286Z,6.00
2019-06-10T08:11:57.202Z,4.85
2019-06-10T08:14:04.611Z,8.05
2019-06-10T08:16:06.466Z,5.12
2019-06-10T08:18:10.193Z,6.53
2019-06-10T08:20:16.614Z,6.95
2019-06-10T08:22:31.257Z,7.30
2019-06-10T08:24:25.865Z,6.00
2019-06-10T08:26:29.576Z,5.75
2019-06-10T08:28:33.506Z,4.85
2019-06-10T08:30:37.706Z,10.15
2019-06-10T08:32:46.344Z,5.22
2019-06-10T08:34:48.077Z,3.92
2019-06-10T08:36:54.434Z,3.60
2019-06-10T08:38:57.972Z,6.78
2019-06-10T08:41:03.218Z,5.10
2019-06-10T08:43:07.334Z,5.55
2019-06-10T08:45:12.521Z,4.45
2019-06-10T08:47:16.412Z,5.12
2019-06-10T08:49:20.168Z,7.33
2019-06-10T08:51:23.989Z,5.28
2019-06-10T08:53:27.715Z,7.78
2019-06-10T08:55:33.491Z,5.60
2019-06-10T08:57:38.421Z,5.42
2019-06-10T08:59:44.802Z,4.42
2019-06-10T09:01:51.529Z,6.95
2019-06-10T09:03:53.776Z,6.33
2019-06-10T09:05:58.581Z,5.22
2019-06-10T09:08:03.331Z,5.05
2019-06-10T09:10:07.175Z,3.83
2019-06-10T09:12:27.906Z,5.28
2019-06-10T09:14:16.364Z,5.10
2019-06-10T09:16:22.654Z,7.33
2019-06-10T09:18:25.601Z,4.53
2019-06-10T09:20:29.572Z,5.87
2019-06-10T09:22:33.311Z,4.53
2019-06-10T09:24:37.047Z,6.45
2019-06-10T09:26:44.546Z,4.20
2019-06-10T09:28:51.284Z,6.67
2019-06-10T09:30:57.976Z,7.60
2019-06-10T09:33:00.735Z,4.85
2019-06-10T09:35:03.533Z,18.67
2019-06-10T09:37:07.379Z,7.75
2019-06-10T09:39:12.598Z,6.15
2019-06-10T09:41:16.727Z,6.35
2019-06-10T09:43:22.553Z,8.03
2019-06-10T09:45:26.535Z,5.42
2019-06-10T09:47:33.981Z,3.27
2019-06-10T09:49:37.023Z,3.72
2019-06-10T09:51:45.874Z,5.55
2019-06-10T09:53:54.617Z,2.83
2019-06-10T09:55:55.409Z,4.50
2019-06-10T09:57:59.888Z,6.87
2019-06-10T10:00:04.337Z,4.42
2019-06-10T10:02:08.282Z,6.03
2019-06-10T10:04:12.577Z,6.62
2019-06-10T10:06:16.283Z,2.90
2019-06-10T10:08:20.116Z,4.15
2019-06-10T10:10:32.838Z,5.22
2019-06-10T10:12:36.650Z,4.53
2019-06-10T10:14:44.442Z,3.30
2019-06-10T10:16:50.831Z,3.70
2019-06-10T10:18:57.594Z,5.00
2019-06-10T10:21:00.335Z,3.45
2019-06-10T10:23:03.011Z,2.75
2019-06-10T10:25:07.054Z,2.00
2019-06-10T10:27:13.223Z,2.87
2019-06-10T10:29:16.326Z,2.30
2019-06-10T10:31:20.055Z,3.45
2019-06-10T10:33:29.546Z,4.42
2019-06-10T10:35:32.500Z,3.35
2019-06-10T10:37:35.146Z,4.40
2019-06-10T10:39:38.873Z,3.98
2019-06-10T10:41:45.155Z,2.60
2019-06-10T10:43:51.349Z,2.75
2019-06-10T10:45:59.915Z,4.25
2019-06-10T10:48:02.540Z,2.65
2019-06-10T10:50:07.400Z,5.08
2019-06-10T10:52:12.947Z,7.20
2019-06-10T10:54:29.754Z,7.00
2019-06-10T10:56:22.984Z,3.60
2019-06-10T10:58:26.713Z,3.62
2019-06-10T11:00:45.507Z,3.62
2019-06-10T11:02:50.618Z,3.12
2019-06-10T11:04:56.834Z,4.92
2019-06-10T11:07:01.195Z,3.42
2019-06-10T11:09:08.879Z,4.58
2019-06-10T11:11:13.883Z,5.87
2019-06-10T11:13:22.270Z,2.35
2019-06-10T11:15:28.763Z,3.62
2019-06-10T11:17:33.660Z,3.58
2019-06-10T11:19:37.472Z,7.75
2019-06-10T11:21:42.679Z,5.90
2019-06-10T11:23:48.009Z,9.60
2019-06-10T11:25:55.458Z,2.87
2019-06-10T11:27:57.508Z,4.60
2019-06-10T11:30:02.494Z,4.97
2019-06-10T11:32:06.476Z,3.40
2019-06-10T11:34:10.194Z,6.10
2019-06-10T11:36:13.920Z,3.25
2019-06-10T11:38:17.733Z,4.22
2019-06-10T11:40:22.420Z,3.55
2019-06-10T11:42:26.415Z,8.18
2019-06-10T11:44:30.139Z,6.47
2019-06-10T11:46:33.871Z,6.12
2019-06-10T11:48:37.612Z,5.78
2019-06-10T11:50:42.831Z,9.00
2019-06-10T11:52:47.556Z,6.80
2019-06-10T11:55:03.505Z,6.60
2019-06-10T11:56:58.635Z,3.65
2019-06-10T11:59:09.362Z,4.40
2019-06-10T12:01:12.923Z,5.58
2019-06-10T12:03:16.020Z,3.92
2019-06-10T12:05:23.532Z,6.75
2019-06-10T12:07:27.115Z,4.60
2019-06-10T12:09:33.160Z,4.03
2019-06-10T12:11:36.370Z,4.45
2019-06-10T12:13:42.524Z,4.80
2019-06-10T12:16:30.495Z,3.60
2019-06-10T12:17:58.681Z,3.60
2019-06-10T12:19:59.629Z,5.47
2019-06-10T12:22:07.100Z,4.25
2019-06-10T12:24:08.068Z,4.22
2019-06-10T12:26:11.828Z,6.42
2019-06-10T12:28:15.510Z,6.17
2019-06-10T12:30:22.234Z,3.27
2019-06-10T12:32:25.540Z,5.00
2019-06-10T12:34:29.307Z,6.40
2019-06-10T12:36:33.137Z,4.17
2019-06-10T12:38:36.947Z,3.55
2019-06-10T12:40:42.812Z,3.35
2019-06-10T12:42:46.300Z,4.33
2019-06-10T12:44:50.100Z,5.85
2019-06-10T12:46:57.479Z,3.62
2019-06-10T12:49:02.000Z,4.72
2019-06-10T12:51:08.113Z,4.87
2019-06-10T12:53:12.504Z,4.62
2019-06-10T12:55:16.271Z,3.92
2019-06-10T12:57:20.035Z,3.37
2019-06-10T12:59:23.782Z,7.78
2019-06-10T13:01:27.656Z,3.87
2019-06-10T13:03:33.529Z,4.05
2019-06-10T13:05:37.277Z,3.42
2019-06-10T13:07:43.557Z,6.85
2019-06-10T13:09:47.426Z,4.45
2019-06-10T13:11:53.245Z,6.17
2019-06-10T13:13:57.803Z,6.67
2019-06-10T13:16:06.722Z,5.85
2019-06-10T13:18:08.679Z,5.08
2019-06-10T13:20:13.734Z,8.78
2019-06-10T13:22:17.477Z,5.17
2019-06-10T13:24:22.481Z,3.10
2019-06-10T13:26:26.264Z,4.20
2019-06-10T13:28:32.273Z,5.10
2019-06-10T13:30:35.922Z,3.75
2019-06-10T13:32:39.788Z,5.30
2019-06-10T13:34:43.494Z,3.98
2019-06-10T13:36:47.329Z,3.98
2019-06-10T13:38:53.219Z,5.22
2019-06-10T13:40:57.942Z,6.05
2019-06-10T13:43:01.830Z,4.92
2019-06-10T13:45:08.162Z,4.72
2019-06-10T13:47:14.615Z,7.30
2019-06-10T13:49:16.928Z,6.45
2019-06-10T13:51:20.653Z,5.03
2019-06-10T13:53:24.381Z,4.87
2019-06-10T13:55:28.205Z,4.60
2019-06-10T13:57:32.247Z,3.90
2019-06-10T13:59:36.115Z,4.70
2019-06-10T14:01:39.855Z,5.70
2019-06-10T14:03:44.181Z,3.22
2019-06-10T14:05:48.007Z,3.58
2019-06-10T14:07:52.508Z,5.45
2019-06-10T14:09:57.290Z,4.92
2019-06-10T14:12:02.003Z,3.60
2019-06-10T14:14:05.921Z,2.35
2019-06-10T14:16:09.674Z,3.80
2019-06-10T14:18:15.265Z,3.75
2019-06-10T14:20:19.891Z,4.28
2019-06-10T14:22:23.926Z,4.28
2019-06-10T14:24:27.741Z,7.33
2019-06-10T14:26:40.869Z,4.40
2019-06-10T14:28:41.045Z,2.62
2019-06-10T14:30:43.023Z,5.35
2019-06-10T14:32:47.011Z,5.25
2019-06-10T14:34:52.649Z,4.72
2019-06-10T14:36:56.234Z,3.40
2019-06-10T14:38:59.977Z,3.40
2019-06-10T14:41:05.024Z,3.35
2019-06-10T14:43:10.352Z,4.37
2019-06-10T14:45:16.598Z,4.62
2019-06-10T14:47:22.897Z,4.45
2019-06-10T14:49:26.231Z,6.03
2019-06-10T14:51:32.481Z,3.10
2019-06-10T14:53:35.459Z,5.67
2019-06-10T14:55:39.255Z,4.47
2019-06-10T14:57:43.025Z,4.53
2019-06-10T14:59:46.801Z,3.37
2019-06-10T15:01:52.143Z,4.35
2019-06-10T15:03:56.011Z,2.52
2019-06-10T15:05:59.825Z,6.87
2019-06-10T15:08:03.713Z,5.67
2019-06-10T15:10:07.902Z,5.95
2019-06-10T15:12:14.239Z,4.00
2019-06-10T15:14:17.826Z,3.70
2019-06-10T15:16:23.735Z,6.25
2019-06-10T15:18:27.314Z,6.60
2019-06-10T15:20:32.936Z,4.00
2019-06-10T15:22:36.529Z,4.22
2019-06-10T15:24:42.699Z,4.20
2019-06-10T15:26:45.751Z,6.85
2019-06-10T15:28:52.068Z,4.37
2019-06-10T15:30:55.024Z,3.37
2019-06-10T15:32:58.769Z,2.40
2019-06-10T15:35:03.339Z,3.83
2019-06-10T15:37:07.336Z,9.38
2019-06-10T15:39:14.579Z,4.53
2019-06-10T15:41:19.532Z,6.92
2019-06-10T15:43:23.398Z,10.88
2019-06-10T15:45:27.593Z,6.92
2019-06-10T15:47:31.348Z,5.67
2019-06-10T15:49:35.086Z,5.20
2019-06-10T15:51:38.905Z,4.62
2019-06-10T15:53:43.217Z,4.67
2019-06-10T15:56:10.342Z,3.47
2019-06-10T15:57:54.335Z,4.40
2019-06-10T15:59:58.114Z,13.70
2019-06-10T16:02:02.578Z,13.62
2019-06-10T16:04:06.541Z,7.58
2019-06-10T16:06:10.340Z,5.87
2019-06-10T16:08:15.543Z,8.40
2019-06-10T16:10:23.166Z,8.78
2019-06-10T16:12:26.915Z,8.40
2019-06-10T16:14:33.035Z,4.78
2019-06-10T16:16:36.299Z,10.18
2019-06-10T16:18:42.167Z,5.62
2019-06-10T16:20:45.552Z,8.03
2019-06-10T16:22:49.390Z,11.95
2019-06-10T16:24:53.175Z,10.82
2019-06-10T16:26:56.919Z,5.33
2019-06-10T16:29:02.745Z,8.55
2019-06-10T16:31:06.100Z,6.17
2019-06-10T16:33:09.841Z,5.40
2019-06-10T16:35:14.759Z,7.60
2019-06-10T16:37:19.150Z,4.35
2019-06-10T16:39:24.188Z,4.55
2019-06-10T16:41:28.440Z,7.90
2019-06-10T16:43:33.403Z,6.70
2019-06-10T16:45:37.540Z,6.15
2019-06-10T16:47:43.079Z,7.08
2019-06-10T16:49:46.790Z,4.95
2019-06-10T16:51:52.147Z,7.17
2019-06-10T16:53:56.148Z,5.33
2019-06-10T16:55:59.870Z,9.15
2019-06-10T16:58:03.778Z,4.58
2019-06-10T17:00:13.840Z,9.85
2019-06-10T17:02:15.197Z,9.68
2019-06-10T17:04:19.275Z,4.87
2019-06-10T17:06:25.127Z,6.10
2019-06-10T17:08:28.602Z,7.05
2019-06-10T17:10:34.403Z,7.12
2019-06-10T17:12:37.994Z,6.70
2019-06-10T17:14:42.916Z,6.10
2019-06-10T17:16:46.887Z,5.33
2019-06-10T17:18:50.868Z,8.65
2019-06-10T17:20:54.580Z,7.90
2019-06-10T17:23:00.212Z,6.42
2019-06-10T17:25:04.493Z,8.83
2019-06-10T17:27:08.367Z,7.40
2019-06-10T17:29:12.151Z,9.25
2019-06-10T17:31:15.884Z,5.70
2019-06-10T17:33:22.426Z,8.35
2019-06-10T17:35:26.227Z,6.60
2019-06-10T17:37:31.296Z,5.28
2019-06-10T17:39:35.519Z,11.33
2019-06-10T17:41:39.458Z,9.30
2019-06-10T17:43:43.159Z,6.25
2019-06-10T17:45:46.906Z,4.90
2019-06-10T17:47:52.457Z,8.43
2019-06-10T17:49:56.182Z,6.05
2019-06-10T17:52:02.410Z,6.97
2019-06-10T17:54:05.686Z,9.43
2019-06-10T17:56:09.521Z,6.37
2019-06-10T17:58:13.240Z,4.92
2019-06-10T18:00:18.083Z,6.70
2019-06-10T18:02:23.077Z,7.53
2019-06-10T18:04:27.525Z,8.60
2019-06-10T18:06:34.410Z,8.60
2019-06-10T18:08:40.492Z,12.13
2019-06-10T18:10:43.444Z,6.55
2019-06-10T18:12:47.313Z,12.15
2019-06-10T18:14:52.434Z,11.25
2019-06-10T18:16:56.276Z,6.42
2019-06-10T18:19:00.009Z,11.93
2019-06-10T18:21:03.835Z,9.95
2019-06-10T18:23:07.561Z,6.15
2019-06-10T18:25:12.343Z,9.48
2019-06-10T18:27:16.355Z,12.03
2019-06-10T18:29:22.780Z,8.05
2019-06-10T18:31:25.644Z,10.68
2019-06-10T18:33:29.655Z,11.55
2019-06-10T18:35:35.921Z,7.37
2019-06-10T18:37:39.137Z,8.03
2019-06-10T18:39:43.210Z,7.25
2019-06-10T18:41:46.899Z,8.65
2019-06-10T18:43:50.621Z,6.65
2019-06-10T18:45:54.427Z,7.87
2019-06-10T18:47:58.158Z,6.83
2019-06-10T18:50:02.016Z,9.08
2019-06-10T18:52:05.899Z,10.23
2019-06-10T18:54:09.636Z,6.53
2019-06-10T18:56:13.466Z,10.25
2019-06-10T18:58:17.308Z,11.22
2019-06-10T19:00:22.944Z,11.38
2019-06-10T19:02:28.203Z,7.25
2019-06-10T19:04:35.269Z,6.20
2019-06-10T19:06:39.861Z,8.90
2019-06-10T19:08:44.526Z,8.73
2019-06-10T19:10:48.438Z,10.32
2019-06-10T19:12:53.181Z,9.05
2019-06-10T19:14:57.000Z,7.03
2019-06-10T19:17:02.883Z,9.25
2019-06-10T19:19:06.290Z,6.80
2019-06-10T19:21:12.601Z,7.97
2019-06-10T19:23:16.546Z,5.53
2019-06-10T19:25:20.806Z,6.83
2019-06-10T19:27:25.000Z,7.60
2019-06-10T19:29:35.108Z,9.10
2019-06-10T19:31:37.236Z,10.18
2019-06-10T19:33:41.332Z,9.10
2019-06-10T19:35:45.128Z,8.93
2019-06-10T19:37:48.861Z,9.88
2019-06-10T19:39:54.175Z,8.15
2019-06-10T19:41:58.064Z,10.23
2019-06-10T19:44:02.457Z,8.78
2019-06-10T19:46:07.648Z,11.22
2019-06-10T19:48:12.442Z,9.23
2019-06-10T19:50:17.603Z,8.83
2019-06-10T19:52:23.469Z,9.28
2019-06-10T19:54:26.925Z,8.43
2019-06-10T19:56:33.004Z,10.32
2019-06-10T19:58:36.873Z,8.45
2019-06-10T20:00:41.601Z,15.93
2019-06-10T20:02:46.990Z,7.87
2019-06-10T20:04:52.776Z,8.90
2019-06-10T20:06:56.450Z,11.68
2019-06-10T20:09:02.582Z,9.20
2019-06-10T20:11:05.811Z,8.85
2019-06-10T20:13:09.564Z,9.80
2019-06-10T20:15:24.286Z,8.33
2019-06-10T20:17:28.000Z,8.85
2019-06-10T20:19:32.646Z,7.33
2019-06-10T20:21:36.639Z,11.80
2019-06-10T20:23:42.738Z,9.80
2019-06-10T20:25:46.919Z,8.88
2019-06-10T20:27:52.337Z,7.55
2019-06-10T20:30:07.161Z,7.67
2019-06-10T20:32:01.868Z,7.85
2019-06-10T20:34:05.678Z,9.23
2019-06-10T20:36:17.792Z,11.15
2019-06-10T20:38:15.037Z,11.55
2019-06-10T20:40:19.257Z,9.33
2019-06-10T20:42:23.266Z,9.18
2019-06-10T20:44:27.094Z,9.85
2019-06-10T20:46:32.370Z,11.50
2019-06-10T20:48:36.070Z,9.38
2019-06-10T20:50:43.238Z,10.95
2019-06-10T20:52:46.350Z,9.25
2019-06-10T20:54:53.053Z,8.98
2019-06-10T20:56:56.243Z,10.03
2019-06-10T20:58:59.990Z,10.05
2019-06-10T21:01:04.819Z,10.25
2019-06-10T21:03:09.056Z,8.30
2019-06-10T21:05:13.407Z,11.10
2019-06-10T21:07:18.085Z,9.85
2019-06-10T21:09:23.177Z,10.30
2019-06-10T21:11:26.946Z,10.88
2019-06-10T21:13:32.919Z,10.03
2019-06-10T21:15:36.975Z,9.93
2019-06-10T21:17:43.264Z,18.62
2019-06-10T21:19:47.916Z,11.75
2019-06-10T21:21:54.812Z,8.98
2019-06-10T21:23:57.788Z,11.90
2019-06-10T21:26:03.034Z,8.18
2019-06-10T21:28:06.959Z,12.75
2019-06-10T21:30:11.917Z,8.18
2019-06-10T21:32:15.776Z,9.95
2019-06-10T21:34:19.670Z,8.65
2019-06-10T21:36:24.047Z,12.95
2019-06-10T21:38:27.927Z,9.43
2019-06-10T21:40:33.091Z,7.95
2019-06-10T21:42:36.985Z,7.85
2019-06-10T21:44:41.754Z,10.00
2019-06-10T21:46:47.210Z,7.35
2019-06-10T21:48:55.973Z,8.25
2019-06-10T21:50:59.917Z,7.62
2019-06-10T21:53:03.894Z,11.35
2019-06-10T21:55:08.166Z,9.53
2019-06-10T21:57:12.076Z,11.55
2019-06-10T21:59:17.164Z,7.42
2019-06-10T22:01:22.431Z,10.63
2019-06-10T22:03:26.600Z,7.60
2019-06-10T22:05:33.037Z,11.60
2019-06-10T22:07:36.283Z,10.10
2019-06-10T22:09:42.426Z,9.13
2019-06-10T22:11:45.942Z,12.13
2019-06-10T22:13:50.802Z,6.67
2019-06-10T22:15:57.191Z,8.40
2019-06-10T22:18:02.212Z,12.07
2019-06-10T22:20:06.937Z,9.18
2019-06-10T22:22:12.993Z,10.53
2019-06-10T22:24:16.523Z,11.88
2019-06-10T22:26:22.489Z,13.88
2019-06-10T22:28:25.963Z,11.50
2019-06-10T22:30:31.947Z,14.20
2019-06-10T22:32:35.472Z,14.13
2019-06-10T22:34:39.294Z,13.55
2019-06-10T22:36:43.223Z,8.43
2019-06-10T22:38:47.886Z,8.93
2019-06-10T22:40:55.043Z,11.93
2019-06-10T22:42:57.421Z,9.28
2019-06-10T22:45:03.981Z,9.68
2019-06-10T22:47:06.859Z,10.25
2019-06-10T22:49:13.274Z,9.30
2019-06-10T22:51:16.285Z,12.85
2019-06-10T22:53:23.017Z,13.22
2019-06-10T22:55:25.935Z,12.47
2019-06-10T22:57:29.864Z,14.00
2019-06-10T22:59:33.942Z,13.80
2019-06-10T23:01:38.560Z,10.00
2019-06-10T23:03:42.595Z,11.20
2019-06-10T23:05:46.567Z,11.97
2019-06-10T23:07:52.824Z,13.80
2019-06-10T23:09:56.382Z,11.50
2019-06-10T23:12:02.916Z,16.10
2019-06-10T23:14:06.892Z,12.75
2019-06-10T23:16:12.888Z,14.55
2019-06-10T23:18:16.272Z,16.35
2019-06-10T23:20:20.071Z,12.15
2019-06-10T23:22:23.875Z,14.30
2019-06-10T23:24:27.807Z,10.60
2019-06-10T23:26:33.184Z,11.33
2019-06-10T23:28:43.187Z,11.53
2019-06-10T23:30:47.251Z,13.40
2019-06-10T23:32:54.428Z,10.18
2019-06-10T23:34:58.240Z,13.18
2019-06-10T23:37:02.453Z,13.62
2019-06-10T23:39:07.199Z,12.10
2019-06-10T23:41:12.969Z,10.38
2019-06-10T23:43:16.718Z,13.75
2019-06-10T23:45:22.395Z,12.23
2019-06-10T23:47:26.089Z,11.88
2019-06-10T23:49:32.143Z,15.95
2019-06-10T23:51:35.584Z,10.48
2019-06-10T23:53:39.573Z,13.00
2019-06-10T23:55:43.534Z,9.73
2019-06-10T23:57:47.670Z,12.93
2019-06-10T23:59:52.499Z,11.55
